ADDS METAR Data INFO
IDs: Format: Raw Decoded Include TAF

Data at: 1323 UTC 11 Dec 2017

KY70 111315Z AUTO 11006KT 4SM -SN SCT015 BKN021 OVC032 M06/M10 A2997 RMK AO2 T10561097
KY70 111255Z AUTO 11006KT 10SM OVC015 M05/M11 A2998 RMK AO2 T10551106
KY70 111235Z AUTO 13008KT 10SM BKN015 OVC032 M05/M10 A3000 RMK AO2 T10541102
KY70 111215Z AUTO 11006KT 10SM SCT015 OVC032 M05/M09 A2999 RMK AO2 T10531095
KY70 111155Z AUTO 09007KT 10SM SCT019 OVC030 M05/M10 A3000 RMK AO2 T10521096 11040 21052
KY70 111135Z AUTO 10006KT 10SM SCT019 OVC030 M05/M10 A3000 RMK AO2 T10511097
KY70 111115Z AUTO 10007KT 10SM OVC030 M05/M09 A3000 RMK AO2 T10501095
KY70 111055Z AUTO 11004KT 10SM OVC030 M05/M08 A2999 RMK AO2 T10491085
KY70 111035Z AUTO 09003KT 10SM OVC030 M05/M09 A3000 RMK AO2 T10491092
KY70 111015Z AUTO 09005KT 10SM OVC030 M05/M09 A2999 RMK AO2 T10481088
KY70 110955Z AUTO 09004KT 10SM OVC032 M05/M08 A2999 RMK AO2 T10481084
KY70 110935Z AUTO 08003KT 10SM OVC032 M05/M08 A3000 RMK AO2 T10461083
KY70 110915Z AUTO 10003KT 10SM OVC032 M05/M08 A3000 RMK AO2 T10471080
KY70 110855Z AUTO 10003KT 10SM OVC032 M04/M08 A3002 RMK AO2 T10451080
KY70 110835Z AUTO 00000KT 10SM OVC032 M04/M08 A3002 RMK AO2 T10451081
KY70 110815Z AUTO 01003KT 10SM OVC034 M04/M08 A3002 RMK AO2 T10451081
KY70 110755Z AUTO 36005KT 10SM OVC034 M04/M08 A3002 RMK AO2 T10431084
KY70 110735Z AUTO 36004KT 10SM SCT015 OVC034 M04/M08 A3001 RMK AO2 T10421078
KY70 110715Z AUTO 34003KT 10SM BKN017 BKN023 OVC036 M04/M07 A3001 RMK AO2 T10421074
KY70 110655Z AUTO 00000KT 10SM SCT020 OVC038 M04/M08 A3001 RMK AO2 T10411076
KY70 110635Z AUTO 00000KT 10SM OVC040 M04/M08 A3000 RMK AO2 T10411077
KY70 110615Z AUTO 35004KT 10SM OVC042 M04/M07 A3000 RMK AO2 T10411075
KY70 110555Z AUTO 33003KT 10SM OVC042 M04/M07 A3000 RMK AO2 T10391072 11026 21039 410261041
KY70 110535Z AUTO 35005KT 10SM OVC042 M04/M07 A3000 RMK AO2 T10371067
KY70 110515Z AUTO 34005KT 10SM OVC042 M03/M06 A3001 RMK AO2 T10351062
KY70 110455Z AUTO 33004KT 10SM -SN OVC044 M03/M06 A3000 RMK AO2 T10341060
KY70 110435Z AUTO 31006KT 10SM -SN OVC046 M03/M06 A3000 RMK AO2 T10321058
KY70 110415Z AUTO 30006KT 10SM OVC048 M03/M06 A3000 RMK AO2 T10311060
KY70 110355Z AUTO 31006KT 10SM -SN OVC050 M03/M06 A2999 RMK AO2 T10321060
KY70 110335Z AUTO 29005KT 10SM -SN SCT030 SCT037 OVC050 M03/M06 A2998 RMK AO2 T10321060
KY70 110315Z AUTO 29006KT 10SM -SN OVC032 M03/M06 A2998 RMK AO2 T10291060
KY70 110255Z AUTO 28005KT 10SM OVC034 M03/M06 A2997 RMK AO2 T10271063
KY70 110235Z AUTO 28008KT 10SM OVC032 M03/M06 A2998 RMK AO2 T10271065
KY70 110215Z AUTO 28006KT 10SM OVC032 M03/M06 A2997 RMK AO2 T10281065
KY70 110155Z AUTO 28007KT 10SM OVC034 M03/M06 A2997 RMK AO2 T10271062
KY70 110135Z AUTO 28008KT 10SM OVC032 M03/M06 A2996 RMK AO2 T10271063
KY70 110115Z AUTO 28006KT 10SM OVC032 M03/M06 A2995 RMK AO2 T10271060
KY70 110055Z AUTO 30004KT 10SM SCT018 SCT025 OVC032 M03/M06 A2995 RMK AO2 T10271058
KY70 110035Z AUTO 31008KT 10SM SCT016 OVC025 M03/M05 A2995 RMK AO2 T10261055
KY70 110015Z AUTO 29008KT 10SM SCT014 OVC025 M03/M04 A2994 RMK AO2 T10271045
KY70 102355Z AUTO 28005KT 10SM BKN012 OVC028 M03/M04 A2993 RMK AO2 T10281045 11027 21033
KY70 102335Z AUTO 27006KT 10SM OVC012 M03/M04 A2992 RMK AO2 T10291045
KY70 102315Z AUTO 27004KT 10SM OVC012 M03/M05 A2991 RMK AO2 T10301047
KY70 102255Z AUTO 27004KT 10SM OVC010 M03/M05 A2991 RMK AO2 T10301049
KY70 102235Z AUTO 26004KT 10SM OVC012 M03/M05 A2989 RMK AO2 T10301051
KY70 102215Z AUTO 27006KT 10SM OVC014 M03/M05 A2988 RMK AO2 T10311052
KY70 102155Z AUTO 25006KT 7SM OVC016 M03/M05 A2987 RMK AO2 T10311053
KY70 102135Z AUTO 25008KT 5SM HZ OVC016 M03/M06 A2987 RMK AO2 T10301057
KY70 102115Z AUTO 24005KT 10SM OVC016 M03/M06 A2986 RMK AO2 T10301061
KY70 102055Z AUTO 24006KT 10SM OVC018 M03/M06 A2986 RMK AO2 T10301064
KY70 102035Z AUTO 25007KT 10SM OVC018 M03/M06 A2985 RMK AO2 T10311065
KY70 102015Z AUTO 23007KT 10SM OVC018 M03/M06 A2984 RMK AO2 T10311065
KY70 101955Z AUTO 22007KT 10SM OVC018 M03/M06 A2983 RMK AO2 T10321065
KY70 101935Z AUTO 22009G14KT 10SM OVC016 M03/M07 A2983 RMK AO2 T10321067
KY70 101915Z AUTO 21009KT 10SM OVC016 M03/M07 A2983 RMK AO2 T10331070
KY70 101855Z AUTO 21009KT 10SM OVC016 M03/M07 A2982 RMK AO2 T10321066
KY70 101835Z AUTO 21006KT 10SM OVC020 M03/M06 A2983 RMK AO2 T10311065
KY70 101815Z AUTO 21007G11KT 10SM OVC018 M03/M07 A2983 RMK AO2 T10321066
KY70 101755Z AUTO 21010KT 10SM OVC018 M03/M07 A2984 RMK AO2 T10311066 11030 21037
KY70 101735Z AUTO 21009KT 10SM OVC020 M03/M07 A2984 RMK AO2 T10321066
KY70 101715Z AUTO 21009KT 10SM BKN020 OVC029 M03/M07 A2985 RMK AO2 T10321066
KY70 101655Z AUTO 22012G16KT 10SM OVC029 M03/M06 A2985 RMK AO2 T10301064
KY70 101635Z AUTO 22012G16KT 10SM BKN025 OVC030 M03/M07 A2986 RMK AO2 T10321067
KY70 101615Z AUTO 22011KT 7SM OVC025 M03/M06 A2987 RMK AO2 T10311065
KY70 101555Z AUTO 22012KT 10SM OVC027 M03/M06 A2987 RMK AO2 T10311065
KY70 101535Z AUTO 22014KT 10SM BKN025 OVC031 M03/M06 A2987 RMK AO2 T10311065
KY70 101515Z AUTO 22014KT 10SM OVC025 M03/M06 A2987 RMK AO2 T10321065
KY70 101455Z AUTO 22011G18KT 10SM SCT021 OVC027 M03/M07 A2987 RMK AO2 T10341066
KY70 101435Z AUTO 22012G17KT 10SM BKN019 BKN027 OVC049 M03/M06 A2987 RMK AO2 T10351065
KY70 101415Z AUTO 22010G15KT 10SM SCT021 BKN055 OVC085 M03/M06 A2988 RMK AO2 T10351065
KY70 101355Z AUTO 22010KT 10SM SCT048 BKN060 OVC085 M03/M07 A2987 RMK AO2 T10351066
KY70 101335Z AUTO 22010KT 10SM SCT048 OVC085 M04/M07 A2987 RMK AO2 T10361068
KY70 101315Z AUTO 22010G14KT 10SM SCT025 OVC085 M04/M07 A2987 RMK AO2 T10371068
KY70 101255Z AUTO 22007KT 10SM SCT025 BKN070 OVC085 M04/M07 A2988 RMK AO2 T10371070
KY70 101235Z AUTO 22010G14KT 10SM BKN029 BKN070 OVC085 M04/M07 A2988 RMK AO2 T10371070
KY70 101215Z AUTO 23010KT 10SM BKN029 BKN060 OVC070 M04/M07 A2989 RMK AO2 T10371069
KY70 101155Z AUTO 23010KT 10SM -SN BKN029 BKN050 OVC070 M04/M07 A2989 RMK AO2 T10371070 11033 21041
KY70 101135Z AUTO 23008KT 10SM BKN022 OVC031 M04/M07 A2989 RMK AO2 T10371070
KY70 101115Z AUTO 25008G15KT 10SM BKN022 OVC029 M03/M07 A2989 RMK AO2 T10351072
KY70 101055Z AUTO 26012KT 10SM OVC024 M03/M07 A2989 RMK AO2 T10351072
KY70 101035Z AUTO 26011G16KT 10SM BKN024 OVC028 M03/M07 A2989 RMK AO2 T10341068
KY70 101015Z AUTO 24010KT 10SM BKN021 OVC026 M03/M06 A2988 RMK AO2 T10351057
KY70 100955Z AUTO 23009KT 10SM OVC021 M03/M06 A2988 RMK AO2 T10351056
KY70 100935Z AUTO 23007KT 10SM BKN023 OVC031 M03/M06 A2989 RMK AO2 T10351056
KY70 100915Z AUTO 23008KT 10SM SCT023 OVC033 M03/M06 A2989 RMK AO2 T10351057
KY70 100855Z AUTO 23007KT 10SM BKN023 OVC033 M04/M05 A2990 RMK AO2 T10361055
KY70 100835Z AUTO 22007KT 10SM BKN023 OVC033 M04/M06 A2990 RMK AO2 T10371056
KY70 100815Z AUTO 22007KT 10SM SCT017 SCT025 OVC033 M04/M06 A2990 RMK AO2 T10361056
KY70 100755Z AUTO 22006KT 10SM SCT023 OVC033 M04/M06 A2991 RMK AO2 T10371056
KY70 100735Z AUTO 22005KT 10SM -SN BKN023 OVC033 M04/M06 A2992 RMK AO2 T10371060
KY70 100715Z AUTO 23006KT 10SM SCT018 BKN023 OVC030 M04/M06 A2992 RMK AO2 T10371060
KY70 100655Z AUTO 24005KT 10SM BKN028 OVC034 M04/M06 A2992 RMK AO2 T10391059
KY70 100635Z AUTO 24006KT 10SM OVC032 M04/M06 A2993 RMK AO2 T10401057
KY70 100615Z AUTO 23005KT 10SM OVC036 M04/M06 A2993 RMK AO2 T10401056
KY70 100555Z AUTO 24004KT 10SM BKN033 OVC039 M04/M06 A2993 RMK AO2 T10401056 11026 21052 410171052
KY70 100535Z AUTO 25006KT 10SM OVC032 M04/M06 A2993 RMK AO2 T10401060
KY70 100515Z AUTO 27005KT 10SM OVC037 M04/M06 A2994 RMK AO2 T10401061
KY70 100455Z AUTO 27005KT 10SM -SN SCT036 BKN042 OVC049 M04/M06 A2994 RMK AO2 T10401062
KY70 100435Z AUTO 29004KT 10SM -SN BKN049 OVC055 M04/M06 A2993 RMK AO2 T10411065
KY70 100415Z AUTO 28005KT 10SM SCT029 OVC055 M04/M07 A2994 RMK AO2 T10421067
KY70 100355Z AUTO 27004KT 10SM SCT031 SCT038 OVC055 M04/M07 A2993 RMK AO2 T10431068
KY70 100335Z AUTO 29004KT 10SM SCT040 OVC055 M05/M07 A2993 RMK AO2 T10461070
KY70 100315Z AUTO 29005KT 10SM OVC055 M05/M07 A2993 RMK AO2 T10511075
KY70 100255Z AUTO 29005KT 10SM OVC065 M05/M07 A2993 RMK AO2 T10471074
KY70 100235Z AUTO 30005KT 10SM SCT065 M04/M07 A2992 RMK AO2 T10451073
KY70 100215Z AUTO 29005KT 10SM CLR M05/M08 A2991 RMK AO2 T10511076
KY70 100155Z AUTO 28004KT 10SM BKN060 M04/M07 A2991 RMK AO2 T10391070
KY70 100135Z AUTO 27004KT 10SM OVC060 M03/M07 A2990 RMK AO2 T10331068